Kirkville, Iowa
Current Conditions -  °F | °C
As of 5:11 AM on Saturday 20 Dec 2014 (Local Time) from KOTM Reporting Station
Haze Haze  
Wind Chill: 24°   Ceiling: 400
Heat Index: 31°   Visibility: 4mi
Dew Point: 29°   Wind: 7mph
Humidity: 92%   Direction: 160°SSE
Pressure: 30.19"   Gusts: NA
Location:  41.15°N, 92.5°W
Report Text: KOTM 201111Z AUTO 16006KT 4SM BR OVC004 M01/M02 A3019 RMK AO2 T10061017
Loading
Personal Weather Stations






























Interactive Weather Map New forecast layout! Learn more

10-Day Weather Forecast

Advertisements
Track Severe Weather on mobile